Time;durP1;ratioP1;P1;durP2;ratioP2;P2;SDS_P1;SDS_P2;PMS_P1;PMS_P2;Temp;Humidity;BMP_temperature;BMP_pressure;BME280_temperature;BME280_humidity;BME280_pressure;Samples;Min_cycle;Max_cycle;Signal;HPM_P1;HPM_P2
2022/05/03 15:41:07;;;;;;;35.78;6.90;;;25.00;90.30;;;;;;5104509;27;20462;-62
2022/05/03 15:43:34;;;;;;;34.13;7.03;;;24.70;88.00;;;;;;5104449;28;20445;-64
2022/05/03 15:46:04;;;;;;;34.55;6.35;;;24.80;87.90;;;;;;5106430;28;20077;-64
2022/05/03 15:48:34;;;;;;;34.10;6.13;;;25.00;86.40;;;;;;5071422;28;20078;-64
2022/05/03 15:51:02;;;;;;;359.23;27.20;;;25.10;84.90;;;;;;5105576;28;20070;-64
2022/05/03 15:53:29;;;;;;;33.72;6.65;;;25.50;84.30;;;;;;5105640;28;20131;-61
2022/05/03 15:55:56;;;;;;;31.48;5.50;;;25.50;83.10;;;;;;5113731;28;20084;-64
2022/05/03 15:58:26;;;;;;;28.42;5.57;;;25.80;81.90;;;;;;5104517;28;20070;-64
2022/05/03 16:00:54;;;;;;;25.38;6.03;;;25.90;79.60;;;;;;5104990;28;20094;-62
2022/05/03 16:03:21;;;;;;;28.95;6.05;;;25.70;80.40;;;;;;5106550;28;20059;-63
2022/05/03 16:05:48;;;;;;;31.38;6.07;;;25.80;79.20;;;;;;5104377;28;20089;-65
2022/05/03 16:08:14;;;;;;;31.80;5.28;;;26.30;75.90;;;;;;5105169;28;20178;-66
2022/05/03 16:10:41;;;;;;;40.45;6.00;;;26.10;74.70;;;;;;5105078;28;20512;-63
2022/05/03 16:13:08;;;;;;;24.92;4.82;;;26.30;72.80;;;;;;5087794;28;20204;-64
2022/05/03 16:15:35;;;;;;;27.75;5.18;;;26.50;72.40;;;;;;5087108;28;20054;-63
2022/05/03 16:18:02;;;;;;;34.38;6.00;;;26.80;70.60;;;;;;5105602;28;20061;-62
2022/05/03 16:20:29;;;;;;;34.95;5.32;;;27.00;66.40;;;;;;5105063;28;20067;-63
2022/05/03 16:22:55;;;;;;;28.35;5.10;;;27.20;63.60;;;;;;5103918;28;20060;-62
2022/05/03 16:25:21;;;;;;;59.92;5.03;;;27.30;61.50;;;;;;5070352;28;21523;-63
2022/05/03 16:27:48;;;;;;;26.13;5.10;;;27.50;58.70;;;;;;5104060;28;20051;-65
2022/05/03 16:30:18;;;;;;;22.95;4.15;;;27.80;57.70;;;;;;5104379;28;20151;-63
2022/05/03 16:32:45;;;;;;;27.45;5.28;;;28.10;56.30;;;;;;5103338;28;20078;-64
2022/05/03 16:35:12;;;;;;;25.58;5.18;;;28.30;54.00;;;;;;5104007;28;20076;-62
2022/05/03 16:43:07;;;;;;;49.63;22.55;;;29.20;53.00;;;;;;5103867;28;20069;-65
2022/05/03 16:45:34;;;;;;;18.48;5.15;;;29.40;52.20;;;;;;5105482;28;20438;-61
2022/05/03 16:48:00;;;;;;;23.77;4.53;;;29.20;49.70;;;;;;5104968;28;20144;-62
2022/05/03 16:50:27;;;;;;;31.38;4.95;;;29.30;48.60;;;;;;5084181;28;20058;-63
2022/05/03 16:52:58;;;;;;;35.97;4.75;;;29.80;48.40;;;;;;5091987;28;20047;-65
2022/05/03 16:55:26;;;;;;;18.67;4.80;;;30.20;46.30;;;;;;5071446;28;20040;-64
2022/05/03 16:57:52;;;;;;;25.60;4.95;;;30.50;42.40;;;;;;5072306;28;20049;-61
2022/05/03 17:00:19;;;;;;;20.20;4.30;;;30.40;41.50;;;;;;5088692;28;20065;-64
2022/05/03 17:02:46;;;;;;;19.55;4.68;;;30.60;40.90;;;;;;5091568;28;20038;-64
2022/05/03 17:05:12;;;;;;;15.57;4.30;;;30.70;40.40;;;;;;5072624;28;20135;-63
2022/05/03 17:07:38;;;;;;;23.52;5.05;;;30.40;40.70;;;;;;5088175;28;20035;-65
2022/05/03 17:10:05;;;;;;;57.90;6.57;;;30.50;40.00;;;;;;5090067;28;20058;-64
2022/05/03 17:12:32;;;;;;;20.88;4.50;;;30.70;39.80;;;;;;5090027;28;20092;-64
2022/05/03 17:14:58;;;;;;;25.45;6.00;;;30.70;38.60;;;;;;5090113;28;20060;-66
2022/05/03 17:17:25;;;;;;;21.00;5.35;;;30.90;38.10;;;;;;5086421;28;20063;-65
2022/05/03 17:19:51;;;;;;;15.55;4.38;;;31.00;36.90;;;;;;5086764;28;20192;-64
2022/05/03 17:22:18;;;;;;;21.27;5.50;;;30.70;36.60;;;;;;5088441;28;20045;-63
2022/05/03 17:24:44;;;;;;;17.17;4.30;;;30.60;36.60;;;;;;5087520;28;20044;-64
2022/05/03 17:27:13;;;;;;;19.17;4.95;;;30.70;36.80;;;;;;5071366;28;20064;-62
2022/05/03 17:29:39;;;;;;;17.35;4.10;;;30.90;35.90;;;;;;5093479;28;20048;-63
2022/05/03 17:32:07;;;;;;;19.80;4.07;;;30.70;35.20;;;;;;5093730;28;20495;-62
2022/05/03 17:34:33;;;;;;;16.33;3.90;;;30.90;35.60;;;;;;5098187;28;20133;-64
2022/05/03 17:37:00;;;;;;;20.95;5.47;;;31.10;35.00;;;;;;5088409;28;20031;-65
2022/05/03 17:39:26;;;;;;;13.40;4.43;;;31.40;34.20;;;;;;5086436;28;20071;-66
2022/05/03 17:41:53;;;;;;;27.70;5.55;;;31.40;34.20;;;;;;5085677;28;20037;-63
2022/05/03 17:44:19;;;;;;;17.48;4.68;;;31.50;33.60;;;;;;5093950;28;20069;-63
2022/05/03 17:46:47;;;;;;;20.65;4.78;;;31.20;33.90;;;;;;5088620;28;20166;-67
2022/05/03 17:49:14;;;;;;;20.85;5.28;;;31.40;35.10;;;;;;5088022;28;20067;-62
2022/05/03 17:54:25;;;;;;;28.00;4.82;;;31.10;36.60;;;;;;5088759;28;20404;-62
2022/05/03 17:56:51;;;;;;;21.63;5.82;;;31.60;36.90;;;;;;5086363;28;20037;-62
2022/05/03 17:59:18;;;;;;;23.73;6.22;;;31.70;36.50;;;;;;5070359;28;20053;-65
2022/05/03 18:01:44;;;;;;;23.88;5.43;;;31.80;37.10;;;;;;5071262;28;20049;-64
2022/05/03 18:04:11;;;;;;;19.60;5.32;;;31.90;36.90;;;;;;5089235;28;20038;-65
2022/05/03 18:09:23;;;;;;;94.10;9.13;;;31.50;35.80;;;;;;5088893;28;20487;-60
2022/05/03 18:11:49;;;;;;;17.75;4.07;;;31.30;33.00;;;;;;5087985;28;20041;-65
2022/05/03 18:14:16;;;;;;;23.90;4.75;;;31.10;31.80;;;;;;5088439;28;20526;-64
2022/05/03 18:16:42;;;;;;;18.48;4.22;;;31.20;32.00;;;;;;5090157;28;20049;-65
2022/05/03 18:19:09;;;;;;;25.92;5.00;;;31.10;33.30;;;;;;5088835;28;20050;-63
2022/05/03 18:21:36;;;;;;;49.40;6.82;;;31.40;33.80;;;;;;5087084;28;20035;-62
2022/05/03 18:24:03;;;;;;;16.63;4.60;;;32.00;37.40;;;;;;5089378;28;20444;-63
2022/05/03 18:26:29;;;;;;;16.38;4.45;;;32.20;36.00;;;;;;5086233;28;20425;-63
2022/05/03 18:28:55;;;;;;;22.08;4.93;;;31.90;36.60;;;;;;5088253;28;20056;-63
2022/05/03 18:31:22;;;;;;;17.85;4.80;;;31.90;35.50;;;;;;5087713;28;20439;-63
2022/05/03 18:33:49;;;;;;;24.20;5.75;;;31.70;37.60;;;;;;5087611;28;20028;-64
2022/05/03 18:36:15;;;;;;;96.28;7.30;;;32.00;45.20;;;;;;5086862;28;20024;-63
2022/05/03 18:38:42;;;;;;;47.42;7.20;;;32.00;36.90;;;;;;5071783;28;20430;-63
2022/05/03 18:41:09;;;;;;;116.63;9.60;;;32.00;35.90;;;;;;5086179;28;20536;-62
2022/05/03 18:43:35;;;;;;;23.30;4.45;;;32.20;42.70;;;;;;5087262;28;20038;-64
2022/05/03 18:46:02;;;;;;;30.63;5.28;;;32.40;33.60;;;;;;5089057;28;20028;-64
2022/05/03 18:48:28;;;;;;;10.00;3.80;;;32.40;39.10;;;;;;5096300;28;20020;-65
2022/05/03 18:50:55;;;;;;;29.67;4.75;;;32.60;33.90;;;;;;5089468;28;20034;-65
2022/05/03 18:53:21;;;;;;;35.00;5.43;;;32.60;32.40;;;;;;5090322;28;20020;-64
2022/05/03 18:55:49;;;;;;;19.92;4.10;;;32.60;38.20;;;;;;5090229;28;20032;-64
2022/05/03 18:58:20;;;;;;;23.35;4.95;;;32.20;34.40;;;;;;5089270;28;20028;-66
2022/05/03 19:00:48;;;;;;;15.55;3.83;;;32.20;34.20;;;;;;5086665;28;20042;-64
2022/05/03 19:03:16;;;;;;;13.60;3.58;;;32.00;31.80;;;;;;5087238;28;20081;-64
2022/05/03 19:05:44;;;;;;;18.25;4.85;;;32.20;29.90;;;;;;5087819;28;20034;-63
2022/05/03 19:08:11;;;;;;;17.17;3.63;;;32.30;29.70;;;;;;5088091;28;20103;-65
2022/05/03 19:10:39;;;;;;;16.35;3.78;;;32.50;30.30;;;;;;5088199;28;20070;-63
2022/05/03 19:13:06;;;;;;;19.30;4.05;;;32.80;31.50;;;;;;5087904;28;20385;-64
2022/05/03 19:15:34;;;;;;;19.15;4.55;;;33.30;32.40;;;;;;5087265;28;20055;-63
2022/05/03 19:18:00;;;;;;;15.15;4.45;;;33.50;34.50;;;;;;5085548;28;20107;-63
2022/05/03 19:20:27;;;;;;;19.35;3.88;;;33.70;32.30;;;;;;5084713;28;20361;-63
2022/05/03 19:22:54;;;;;;;19.30;4.68;;;33.60;32.50;;;;;;5087065;28;20024;-64
2022/05/03 19:30:52;;;;;;;17.70;4.10;;;32.80;34.40;;;;;;5088719;28;20226;-64
2022/05/03 19:33:18;;;;;;;24.55;4.53;;;33.10;33.40;;;;;;5086049;28;20024;-64
2022/05/03 19:35:46;;;;;;;22.63;4.88;;;32.80;32.60;;;;;;5089159;28;20028;-66
2022/05/03 19:38:19;;;;;;;27.92;4.60;;;33.10;33.60;;;;;;5087212;28;20025;-66
2022/05/03 19:40:51;;;;;;;21.13;4.65;;;33.50;32.50;;;;;;5086862;28;20040;-65
2022/05/03 19:43:18;;;;;;;22.65;4.68;;;33.80;32.60;;;;;;5087690;28;20028;-67
2022/05/03 19:45:46;;;;;;;24.65;4.70;;;33.70;31.80;;;;;;5087496;28;20058;-63
2022/05/03 19:48:12;;;;;;;18.00;4.88;;;33.40;33.90;;;;;;5086163;28;20451;-64
2022/05/03 19:50:40;;;;;;;20.15;4.68;;;33.50;32.70;;;;;;5084157;28;20497;-63
2022/05/03 19:53:08;;;;;;;19.35;5.47;;;34.00;32.20;;;;;;5085290;28;20035;-65
2022/05/03 19:55:36;;;;;;;18.83;4.15;;;34.40;32.30;;;;;;5086502;28;20071;-66
2022/05/03 19:58:07;;;;;;;22.67;4.65;;;34.80;31.70;;;;;;5087308;28;20052;-63
2022/05/03 20:00:35;;;;;;;24.83;5.25;;;35.00;31.00;;;;;;5070822;28;20028;-61
2022/05/03 20:03:04;;;;;;;17.88;4.45;;;35.20;29.70;;;;;;5067777;28;20023;-62
2022/05/03 20:05:37;;;;;;;17.13;4.95;;;35.20;29.10;;;;;;5086196;28;20020;-64
2022/05/03 20:08:10;;;;;;;15.70;5.03;;;35.10;29.20;;;;;;5087129;28;20036;-63
2022/05/03 20:10:41;;;;;;;12.90;4.38;;;35.10;28.30;;;;;;5070765;28;20024;-61
2022/05/03 20:13:08;;;;;;;22.90;4.55;;;35.10;29.40;;;;;;5084607;28;20024;-62
2022/05/03 20:15:35;;;;;;;33.38;4.32;;;35.50;30.20;;;;;;5088490;28;20055;-61
2022/05/03 20:18:01;;;;;;;24.95;3.65;;;35.60;27.80;;;;;;5081386;28;20078;-61
2022/05/03 20:20:28;;;;;;;16.85;3.67;;;35.30;26.80;;;;;;5089112;28;20031;-62
2022/05/03 20:22:54;;;;;;;19.08;4.82;;;35.30;26.90;;;;;;5082918;28;20050;-61
2022/05/03 20:25:21;;;;;;;20.33;4.45;;;35.30;26.90;;;;;;5087429;28;20084;-61
2022/05/03 20:27:47;;;;;;;16.58;4.18;;;35.40;28.80;;;;;;5073306;28;20503;-61
2022/05/03 20:30:15;;;;;;;10.90;3.75;;;35.70;28.10;;;;;;5059565;28;20076;-60
2022/05/03 20:32:42;;;;;;;24.58;4.90;;;35.80;28.10;;;;;;5089290;28;20028;-64
2022/05/03 20:35:11;;;;;;;22.95;4.40;;;35.90;27.60;;;;;;5090896;28;20394;-63
2022/05/03 20:37:39;;;;;;;22.75;4.05;;;35.90;27.00;;;;;;5089334;28;20024;-62
2022/05/03 20:40:07;;;;;;;13.65;3.50;;;35.80;27.60;;;;;;5087066;28;20078;-60
2022/05/03 20:42:33;;;;;;;17.17;3.95;;;35.60;26.90;;;;;;5092695;28;20020;-63
2022/05/03 20:44:59;;;;;;;17.20;4.20;;;35.50;27.60;;;;;;5091820;28;20024;-64
2022/05/03 20:50:11;;;;;;;24.13;4.82;;;35.30;28.40;;;;;;5092271;28;20047;-62
2022/05/03 20:52:38;;;;;;;17.55;3.88;;;35.30;28.50;;;;;;5101253;28;20081;-64
2022/05/03 20:55:06;;;;;;;15.95;3.55;;;35.40;28.20;;;;;;5098852;28;20024;-62
2022/05/03 20:57:33;;;;;;;16.27;3.53;;;35.70;27.80;;;;;;5096009;28;20429;-63
2022/05/03 21:00:02;;;;;;;22.27;4.07;;;35.90;27.20;;;;;;5087866;28;20028;-62
2022/05/03 21:02:30;;;;;;;17.40;3.70;;;35.90;25.70;;;;;;5091041;28;20115;-63
2022/05/03 21:04:57;;;;;;;15.57;3.58;;;35.60;26.30;;;;;;5092514;28;20023;-65
2022/05/03 21:07:27;;;;;;;13.38;3.60;;;35.50;27.20;;;;;;5087482;28;20020;-63
2022/05/03 21:09:53;;;;;;;20.67;4.25;;;35.30;27.80;;;;;;5091565;28;20077;-64
2022/05/03 21:12:20;;;;;;;19.90;3.85;;;35.10;29.00;;;;;;5089951;28;20044;-63
2022/05/03 21:14:46;;;;;;;21.33;4.40;;;35.40;27.70;;;;;;5090798;28;20051;-63
2022/05/03 21:17:13;;;;;;;20.60;3.60;;;35.60;27.30;;;;;;5087838;28;20060;-63
2022/05/03 21:19:40;;;;;;;18.75;4.18;;;35.70;27.40;;;;;;5072676;28;20060;-62
2022/05/03 21:22:07;;;;;;;14.93;3.33;;;35.50;27.10;;;;;;5085790;28;20111;-63
2022/05/03 21:24:33;;;;;;;18.48;3.30;;;35.50;26.60;;;;;;5089632;28;20111;-64
2022/05/03 21:27:00;;;;;;;15.90;3.60;;;35.40;25.80;;;;;;5088228;28;20016;-62
2022/05/03 21:29:26;;;;;;;11.23;3.78;;;35.50;25.50;;;;;;5090228;28;20060;-64
2022/05/03 21:31:53;;;;;;;19.38;3.97;;;35.50;26.60;;;;;;5087665;28;20135;-63
2022/05/03 21:34:19;;;;;;;14.93;3.45;;;35.50;27.50;;;;;;5087083;28;20394;-61
2022/05/03 21:36:45;;;;;;;19.08;4.07;;;35.60;27.90;;;;;;5094872;28;20930;-62
2022/05/03 21:39:13;;;;;;;20.83;4.13;;;35.60;27.70;;;;;;5089278;28;20075;-61
2022/05/03 21:41:39;;;;;;;17.33;3.90;;;35.60;28.40;;;;;;5072833;28;20027;-62
2022/05/03 21:44:06;;;;;;;18.70;3.75;;;35.70;27.20;;;;;;5085409;28;20449;-62
2022/05/03 21:46:34;;;;;;;24.33;4.57;;;35.70;26.40;;;;;;5071650;28;20032;-62
2022/05/03 21:49:01;;;;;;;16.13;3.38;;;35.70;27.50;;;;;;5090714;28;20355;-61
2022/05/03 21:51:27;;;;;;;18.05;3.95;;;35.30;27.50;;;;;;5090110;28;20470;-61
2022/05/03 21:53:54;;;;;;;16.17;3.60;;;35.20;27.40;;;;;;5072719;28;20039;-61
2022/05/03 21:56:20;;;;;;;14.65;3.50;;;35.20;26.80;;;;;;5089608;28;20115;-62
2022/05/03 21:58:47;;;;;;;21.13;3.78;;;35.30;26.90;;;;;;5088053;28;20023;-60
2022/05/03 22:01:16;;;;;;;19.48;4.00;;;35.30;27.40;;;;;;5072880;28;20048;-59
2022/05/03 22:03:43;;;;;;;18.90;3.38;;;35.30;27.10;;;;;;5089387;28;20024;-62
2022/05/03 22:06:09;;;;;;;19.65;3.80;;;35.40;26.90;;;;;;5090836;28;20023;-63
2022/05/03 22:08:36;;;;;;;14.80;3.25;;;35.40;26.80;;;;;;5089593;28;20057;-65
2022/05/03 22:11:06;;;;;;;18.45;3.85;;;35.20;26.60;;;;;;5070819;28;20028;-63
2022/05/03 22:13:33;;;;;;;21.17;3.40;;;35.10;26.50;;;;;;5088003;28;20425;-63
2022/05/03 22:16:00;;;;;;;20.27;3.72;;;35.30;26.80;;;;;;5088398;28;20070;-63
2022/05/03 22:18:27;;;;;;;21.33;3.75;;;35.40;26.80;;;;;;5088231;28;20042;-63
2022/05/03 22:20:53;;;;;;;16.67;3.15;;;35.30;27.50;;;;;;5087192;28;20031;-62
2022/05/03 22:23:20;;;;;;;12.07;3.58;;;35.30;27.80;;;;;;5086491;28;20051;-64
2022/05/03 22:25:46;;;;;;;17.08;4.15;;;35.40;27.90;;;;;;5084470;28;20040;-65
2022/05/03 22:28:13;;;;;;;10.93;3.05;;;35.50;27.80;;;;;;5083702;28;20466;-63
2022/05/03 22:30:41;;;;;;;16.10;3.80;;;35.60;27.30;;;;;;5087183;28;20119;-62
2022/05/03 22:33:07;;;;;;;16.38;3.58;;;35.70;27.50;;;;;;5086397;28;20032;-62
2022/05/03 22:35:33;;;;;;;13.32;3.40;;;35.80;26.90;;;;;;5071129;28;20024;-63
2022/05/03 22:38:00;;;;;;;12.93;3.28;;;35.60;26.20;;;;;;5087691;28;20016;-63
2022/05/03 22:40:26;;;;;;;9.82;2.80;;;35.50;26.10;;;;;;5087026;28;20046;-62
2022/05/03 22:42:53;;;;;;;15.18;3.53;;;35.40;25.90;;;;;;5088349;28;20031;-62
2022/05/03 22:45:20;;;;;;;16.60;3.55;;;35.40;25.60;;;;;;5070147;28;20024;-63
2022/05/03 22:47:47;;;;;;;14.32;2.90;;;35.30;24.80;;;;;;5089752;28;20031;-62
2022/05/03 22:50:16;;;;;;;13.45;3.10;;;35.40;25.00;;;;;;5071060;28;20023;-62
2022/05/03 22:52:44;;;;;;;10.70;2.78;;;35.50;24.10;;;;;;5073790;28;20616;-63
2022/05/03 22:55:12;;;;;;;15.10;3.33;;;35.30;24.20;;;;;;5090839;28;20031;-63
2022/05/03 22:57:39;;;;;;;13.85;3.38;;;35.40;24.50;;;;;;5088188;28;20428;-63
2022/05/03 23:00:06;;;;;;;20.85;3.55;;;35.50;24.60;;;;;;5089495;28;20028;-62
2022/05/03 23:02:33;;;;;;;11.90;3.20;;;35.30;24.00;;;;;;5089649;28;20059;-64
2022/05/03 23:05:00;;;;;;;12.70;2.75;;;35.20;23.90;;;;;;5088248;28;20024;-63
2022/05/03 23:07:26;;;;;;;16.60;3.22;;;35.20;24.30;;;;;;5070681;28;20032;-62
2022/05/03 23:09:54;;;;;;;14.35;3.20;;;35.20;25.20;;;;;;5087538;28;20031;-63
2022/05/03 23:12:21;;;;;;;18.17;3.15;;;35.20;24.20;;;;;;5076247;28;20039;-62
2022/05/03 23:14:47;;;;;;;17.95;3.25;;;35.20;24.60;;;;;;5087662;28;20024;-62
2022/05/03 23:17:13;;;;;;;18.23;3.03;;;35.10;24.40;;;;;;5087468;28;20028;-62
2022/05/03 23:19:40;;;;;;;17.48;3.35;;;35.20;24.50;;;;;;5094582;28;20145;-62
2022/05/03 23:22:07;;;;;;;18.67;3.05;;;35.30;24.20;;;;;;5083439;28;20458;-62
2022/05/03 23:24:34;;;;;;;16.70;3.13;;;35.30;24.70;;;;;;5085707;28;20028;-63
2022/05/03 23:27:00;;;;;;;15.13;3.35;;;35.50;24.30;;;;;;5088166;28;20022;-62
2022/05/03 23:29:26;;;;;;;18.90;3.15;;;35.40;24.60;;;;;;5084539;28;20028;-62
2022/05/03 23:31:53;;;;;;;13.57;2.97;;;35.50;24.40;;;;;;5086823;28;20118;-61
2022/05/03 23:37:06;;;;;;;11.40;2.83;;;35.80;24.80;;;;;;5087435;28;20116;-62
2022/05/03 23:39:32;;;;;;;12.75;3.42;;;35.80;24.90;;;;;;5087368;28;20040;-62
2022/05/03 23:42:00;;;;;;;17.30;3.50;;;35.80;24.40;;;;;;5088070;28;20024;-62
2022/05/03 23:44:26;;;;;;;13.80;2.95;;;35.70;24.10;;;;;;5085539;28;20463;-62
2022/05/03 23:46:53;;;;;;;17.15;3.22;;;35.70;24.70;;;;;;5086955;28;20532;-62
2022/05/03 23:49:19;;;;;;;16.27;3.15;;;35.60;24.40;;;;;;5086590;28;20024;-62
2022/05/03 23:51:46;;;;;;;12.00;3.47;;;35.70;24.10;;;;;;5086804;28;20389;-61
2022/05/03 23:54:12;;;;;;;10.50;2.75;;;35.70;24.20;;;;;;5086485;28;20529;-62
2022/05/03 23:56:39;;;;;;;13.73;3.03;;;35.50;23.80;;;;;;5070517;28;20070;-63
2022/05/03 23:59:05;;;;;;;12.93;2.92;;;35.40;23.80;;;;;;5086007;28;20032;-63
